Terminal Aerodrome Forecast
Issued by NWS Spokane, WA

Home | Current Version | Previous Version | Text Only | Print | Product List | Glossary On
Versions: 1 2 3 4 5 6 7 8 9 10 11 12 13 14 15 16 17 18 19 20 21 22 23 24 25 26 27 28 29 30 31 32 33 34 35 36 37 38
000
FTUS46 KOTX 252111 AAA
TAFEAT
TAF AMD
KEAT 252111Z 2521/2618 VRB03KT 4SM -RA BR FEW004 OVC024
      TEMPO 2521/2524 1/2SM -RA FG BKN002 OVC024
     FM260000 32005KT 4SM -RA BR BKN010 OVC016
     FM260600 31005KT P6SM OVC012=

USA.gov is the U.S. government's official web portal to all federal, state and local government web resources and services.